createdAt,value
2023-04-14T00:00:02.811Z,3
2023-04-14T00:05:02.602Z,3.02
2023-04-14T00:10:02.319Z,3.49
2023-04-14T00:15:03.151Z,3.73
2023-04-14T00:20:02.984Z,3.66
2023-04-14T00:25:02.711Z,3.63
2023-04-14T00:30:02.803Z,3.62
2023-04-14T00:35:02.243Z,4.01
2023-04-14T00:40:02.955Z,3.93
2023-04-14T00:45:02.799Z,4.05
2023-04-14T00:50:02.415Z,3.98
2023-04-14T00:55:04.102Z,3.53
2023-04-14T01:00:03.023Z,3.38
2023-04-14T01:05:02.825Z,3.26
2023-04-14T01:10:02.700Z,3.68
2023-04-14T01:15:02.772Z,3.94
2023-04-14T01:20:02.446Z,4.02
2023-04-14T01:25:03.163Z,3.99
2023-04-14T01:30:02.976Z,3.85
2023-04-14T01:35:02.688Z,4.05
2023-04-14T01:40:02.612Z,4.06
2023-04-14T01:45:02.254Z,3.71
2023-04-14T01:50:02.240Z,3.28
2023-04-14T01:55:03.619Z,3.26
2023-04-14T02:00:02.874Z,3.19
2023-04-14T02:05:02.561Z,3.29
2023-04-14T02:10:02.580Z,3.9
2023-04-14T02:15:03.120Z,3.88
2023-04-14T02:20:02.816Z,3.94
2023-04-14T02:25:02.523Z,3.94
2023-04-14T02:30:02.286Z,3.98
2023-04-14T02:35:03.092Z,3.94
2023-04-14T02:40:02.835Z,3.77
2023-04-14T02:45:02.739Z,3.57
2023-04-14T02:50:02.274Z,3.64
2023-04-14T02:55:04.026Z,3.91
2023-04-14T03:00:03.107Z,4.07
2023-04-14T03:05:02.900Z,4.28
2023-04-14T03:10:02.902Z,4.37
2023-04-14T03:15:02.740Z,4.55
2023-04-14T03:20:02.690Z,4.69
2023-04-14T03:25:02.933Z,4.69
2023-04-14T03:30:02.839Z,4.69
2023-04-14T03:35:02.682Z,4.56
2023-04-14T03:40:02.242Z,4.38
2023-04-14T03:45:03.048Z,4.32
2023-04-14T03:50:02.875Z,4.42
2023-04-14T03:55:03.565Z,4.76
2023-04-14T04:00:02.487Z,4.91
2023-04-14T04:05:03.065Z,4.96
2023-04-14T04:10:03.039Z,4.33
2023-04-14T04:15:02.510Z,4.3
2023-04-14T04:20:02.316Z,4.55
2023-04-14T04:25:03.225Z,4.76
2023-04-14T04:30:02.309Z,4.72
2023-04-14T04:35:03.009Z,4.61
2023-04-14T04:40:02.765Z,4.67
2023-04-14T04:45:02.576Z,4.83
2023-04-14T04:50:02.332Z,5.02
2023-04-14T04:55:03.621Z,5.11
2023-04-14T05:00:02.817Z,5.14
2023-04-14T05:05:02.987Z,5.22
2023-04-14T05:10:02.487Z,5.32
2023-04-14T05:15:02.316Z,5.44
2023-04-14T05:20:03.064Z,5.56
2023-04-14T05:25:02.770Z,5.64
2023-04-14T05:30:02.702Z,5.71
2023-04-14T05:35:02.602Z,5.73
2023-04-14T05:40:02.256Z,5.78
2023-04-14T05:45:02.419Z,5.84
2023-04-14T05:50:03.058Z,5.9
2023-04-14T05:55:03.677Z,5.93
2023-04-14T06:00:02.704Z,6.02
2023-04-14T06:05:02.541Z,6.12
2023-04-14T06:10:03.159Z,6.19
2023-04-14T06:15:03.022Z,6.34
2023-04-14T06:20:02.709Z,6.54
2023-04-14T06:25:02.830Z,6.74
2023-04-14T06:30:02.775Z,6.82
2023-04-14T06:35:02.404Z,6.78
2023-04-14T06:40:02.313Z,6.82
2023-04-14T06:45:03.142Z,6.82
2023-04-14T06:50:02.767Z,6.9
2023-04-14T06:55:03.278Z,6.99
2023-04-14T07:00:02.696Z,6.91
2023-04-14T07:05:02.329Z,6.84
2023-04-14T07:10:03.173Z,6.8
2023-04-14T07:15:03.095Z,7.1
2023-04-14T07:20:02.885Z,7.36
2023-04-14T07:25:02.641Z,7.36
2023-04-14T07:30:02.632Z,7.49
2023-04-14T07:35:03.087Z,7.23
2023-04-14T07:40:02.888Z,7.12
2023-04-14T07:45:02.856Z,7.24
2023-04-14T07:50:02.568Z,7.36
2023-04-14T07:55:03.936Z,7.38
2023-04-14T08:00:02.673Z,7.51
2023-04-14T08:05:02.335Z,7.37
2023-04-14T08:10:02.286Z,7.36
2023-04-14T08:15:03.104Z,7.45
2023-04-14T08:20:02.843Z,7.55
2023-04-14T08:25:03.082Z,7.65
2023-04-14T08:30:02.989Z,7.67
2023-04-14T08:35:36.574Z,7.79
2023-04-14T08:40:02.574Z,7.85
2023-04-14T08:45:02.545Z,7.83
2023-04-14T08:50:02.424Z,7.97
2023-04-14T08:55:03.600Z,8.03
2023-04-14T09:00:02.940Z,8.01
2023-04-14T09:05:02.767Z,8.09
2023-04-14T09:10:02.436Z,8.25
2023-04-14T09:15:02.531Z,8.34
2023-04-14T09:20:37.170Z,8.45
2023-04-14T09:25:03.062Z,8.78
2023-04-14T09:30:02.919Z,8.94
2023-04-14T09:35:02.909Z,8.85
2023-04-14T09:40:02.596Z,9.33
2023-04-14T09:45:02.384Z,9.19
2023-04-14T09:50:03.327Z,9.43
2023-04-14T09:55:03.920Z,9.32
2023-04-14T10:00:02.764Z,9.25
2023-04-14T10:05:02.548Z,8.97
2023-04-14T10:10:02.302Z,8.59
2023-04-14T10:15:03.127Z,8.73
2023-04-14T10:20:02.799Z,8.79
2023-04-14T10:25:02.588Z,8.63
2023-04-14T10:30:02.483Z,8.49
2023-04-14T10:35:03.184Z,8.43
2023-04-14T10:40:03.019Z,8.1
2023-04-14T10:45:02.788Z,7.91
2023-04-14T10:50:02.706Z,7.9
2023-04-14T10:55:03.579Z,7.65
2023-04-14T11:00:02.391Z,7.61
2023-04-14T11:05:03.107Z,7.4
2023-04-14T11:10:03.002Z,7.44
2023-04-14T11:20:02.721Z,7.53
2023-04-14T11:25:02.238Z,7.64
2023-04-14T11:35:03.011Z,7.82
2023-04-14T11:40:02.598Z,7.86
2023-04-14T11:45:02.564Z,7.73
2023-04-14T11:50:02.329Z,7.72
2023-04-14T11:55:02.883Z,7.64
2023-04-14T12:00:02.288Z,7.64
2023-04-14T12:05:03.137Z,7.5
2023-04-14T12:10:02.691Z,7.48
2023-04-14T12:15:02.536Z,7.51
2023-04-14T12:20:02.460Z,7.51
2023-04-14T12:25:03.388Z,7.55
2023-04-14T12:30:02.997Z,7.71
2023-04-14T12:35:02.647Z,7.58
2023-04-14T12:40:02.509Z,7.59
2023-04-14T12:45:02.390Z,7.7
2023-04-14T12:50:03.154Z,7.83
2023-04-14T12:55:03.689Z,7.75
2023-04-14T13:00:02.736Z,7.79
2023-04-14T13:05:02.375Z,7.68
2023-04-14T13:10:02.511Z,7.7
2023-04-14T13:15:03.234Z,7.81
2023-04-14T13:20:02.920Z,7.85
2023-04-14T13:25:02.939Z,7.84
2023-04-14T13:30:02.929Z,7.88
2023-04-14T13:35:02.715Z,7.78
2023-04-14T13:40:02.702Z,7.97
2023-04-14T13:45:02.352Z,7.96
2023-04-14T13:50:02.962Z,8.1
2023-04-14T13:55:03.470Z,8.01
2023-04-14T14:00:02.548Z,7.98
2023-04-14T14:05:02.322Z,8.04
2023-04-14T14:10:03.035Z,8.03
2023-04-14T14:15:02.864Z,7.97
2023-04-14T14:20:02.769Z,8.14
2023-04-14T14:25:15.608Z,8.29
2023-04-14T14:30:02.616Z,8.69
2023-04-14T14:35:02.404Z,8.54
2023-04-14T14:40:02.373Z,8.03
2023-04-14T14:45:03.120Z,7.87
2023-04-14T14:50:08.417Z,7.7
2023-04-14T14:55:02.932Z,7.76
2023-04-14T15:00:02.241Z,7.88
2023-04-14T15:05:02.133Z,7.82
2023-04-14T15:10:03.083Z,7.75
2023-04-14T15:15:02.887Z,7.73
2023-04-14T15:20:02.618Z,7.7
2023-04-14T15:25:02.414Z,7.62
2023-04-14T15:30:03.162Z,7.58
2023-04-14T15:35:02.836Z,7.46
2023-04-14T15:40:02.544Z,7.34
2023-04-14T15:45:02.383Z,7.23
2023-04-14T15:50:09.241Z,7.19
2023-04-14T15:55:03.826Z,7.18
2023-04-14T16:00:02.419Z,7.15
2023-04-14T16:05:03.164Z,7.18
2023-04-14T16:10:02.868Z,7.1
2023-04-14T16:20:02.890Z,6.87
2023-04-14T16:25:02.345Z,6.86
2023-04-14T16:30:03.077Z,6.82
2023-04-14T16:35:02.891Z,6.85
2023-04-14T16:40:02.931Z,6.85
2023-04-14T16:45:02.735Z,6.8
2023-04-14T16:50:02.553Z,6.7
2023-04-14T16:55:03.195Z,6.66
2023-04-14T17:00:03.180Z,6.63
2023-04-14T17:05:02.713Z,6.61
2023-04-14T17:10:02.459Z,6.54
2023-04-14T17:15:02.322Z,6.46
2023-04-14T17:20:03.074Z,6.4
2023-04-14T17:25:02.819Z,6.32
2023-04-14T17:30:02.529Z,6.3
2023-04-14T17:35:02.226Z,6.26
2023-04-14T17:40:02.952Z,6.27
2023-04-14T17:50:02.569Z,6.23
2023-04-14T17:55:02.967Z,6.19
2023-04-14T18:00:03.024Z,6.18
2023-04-14T18:05:02.960Z,6.16
2023-04-14T18:10:02.676Z,6.12
2023-04-14T18:15:02.522Z,6.12
2023-04-14T18:20:02.269Z,6.14
2023-04-14T18:25:03.058Z,6.1
2023-04-14T18:30:02.914Z,6.08
2023-04-14T18:35:02.687Z,6.07
2023-04-14T18:40:02.759Z,6.03
2023-04-14T18:45:02.532Z,6.02
2023-04-14T18:50:02.416Z,6.01
2023-04-14T18:55:04.372Z,5.97
2023-04-14T19:00:03.033Z,5.99
2023-04-14T19:05:02.561Z,6.01
2023-04-14T19:10:02.230Z,6.02
2023-04-14T19:15:03.107Z,6.02
2023-04-14T19:20:02.757Z,6.03
2023-04-14T19:25:02.626Z,6.02
2023-04-14T19:30:02.747Z,6.01
2023-04-14T19:35:02.412Z,5.99
2023-04-14T19:40:03.131Z,5.98
2023-04-14T19:45:02.946Z,5.98
2023-04-14T19:50:02.641Z,5.96
2023-04-14T19:55:03.650Z,5.96
2023-04-14T20:00:02.615Z,5.95
2023-04-14T20:05:03.114Z,5.93
2023-04-14T20:15:02.863Z,5.9
2023-04-14T20:20:02.754Z,5.85
2023-04-14T20:25:02.249Z,5.85
2023-04-14T20:30:03.126Z,5.81
2023-04-14T20:35:02.714Z,5.82
2023-04-14T20:40:02.661Z,5.79
2023-04-14T20:45:03.198Z,5.79
2023-04-14T20:50:03.163Z,5.78
2023-04-14T21:00:02.893Z,5.78
2023-04-14T21:05:02.607Z,5.78
2023-04-14T21:10:02.358Z,5.8
2023-04-14T21:15:56.646Z,5.81
2023-04-14T21:20:02.346Z,5.82
2023-04-14T21:25:03.125Z,5.84
2023-04-14T21:30:02.787Z,5.86
2023-04-14T21:35:02.531Z,5.86
2023-04-14T21:40:02.509Z,5.87
2023-04-14T21:45:02.536Z,5.89
2023-04-14T21:50:03.177Z,5.9
2023-04-14T21:55:03.772Z,5.91
2023-04-14T22:00:02.663Z,5.91
2023-04-14T22:05:02.473Z,5.91
2023-04-14T22:10:02.222Z,5.9
2023-04-14T22:15:02.995Z,5.91
2023-04-14T22:20:02.707Z,5.89
2023-04-14T22:25:02.562Z,5.89
2023-04-14T22:30:02.385Z,5.89
2023-04-14T22:35:02.296Z,5.89
2023-04-14T22:40:03.072Z,5.9
2023-04-14T22:45:02.949Z,5.88
2023-04-14T22:50:02.654Z,5.89
2023-04-14T22:55:03.182Z,5.88
2023-04-14T23:00:03.197Z,5.91
2023-04-14T23:05:02.984Z,5.9
2023-04-14T23:10:02.893Z,5.89
2023-04-14T23:15:02.698Z,5.9
2023-04-14T23:20:02.388Z,5.9
2023-04-14T23:25:03.184Z,5.89
2023-04-14T23:30:02.299Z,5.92
2023-04-14T23:35:02.995Z,5.94
2023-04-14T23:40:02.767Z,5.95
2023-04-14T23:45:02.569Z,5.96
2023-04-14T23:50:02.373Z,5.99
2023-04-14T23:55:03.524Z,6.01
